Latest Weather Observations for Braidwood

IDN60801

Issued at 12:03 pm EST Saturday 30 May 2015 (issued every 30 minutes, with the page automatically refreshed every 10 minutes)

About weather observations | Map of weather stations | Latest weather observations for NSW | Other Formats
Station Details ID: 069132 Name: BRAIDWOOD RACECOURSE AWS Lat: -35.43 Lon: 149.78 Height: 665.2 m
Data from the previous 72 hours. | See also: Recent months at Braidwood
Date/Time
EST
Temp
°C
App
Temp
°C
Dew
Point
Rel
Hum
%
Delta-T
°C
Wind Press
QNH
hPa
Press
MSL
hPa
Rain
since 9 am
mm
Dir
 
Spd
km/h
Gust
km/h
Spd
kts
Gust
kts
30/12:00pm 11.7 6.8 2.2 52 4.2 NW 17 28 9 15 1019.0 1019.0 0.0
30/11:30am 8.8 3.8 3.6 70 2.3 NW 19 32 10 17 1019.3 1019.4 0.0
30/11:00am 7.8 2.7 3.1 72 2.1 NW 19 30 10 16 1019.8 1019.9 0.0
30/10:30am 7.6 3.4 3.6 76 1.8 NW 15 24 8 13 1020.4 1020.6 0.0
30/10:00am 7.4 4.6 3.1 74 1.9 NW 7 13 4 7 1020.9 1021.0 0.0
30/09:30am 6.4 3.3 3.6 82 1.2 NW 9 13 5 7 1021.1 1021.2 0.0
30/09:00am 4.8 2.3 3.8 93 0.4 N 6 9 3 5 1021.2 1021.3 0.0
30/08:30am 2.6 0.5 1.4 92 0.5 NNW 2 4 1 2 1021.3 1021.4 0.0
30/08:00am 2.6 0.1 1.6 93 0.4 NNE 4 7 2 4 1021.5 1021.6 0.0
30/07:30am 2.1 0.3 1.1 93 0.4 CALM 0 0 0 0 1021.5 1021.6 0.0
30/07:00am 2.0 0.1 0.8 92 0.5 CALM 0 0 0 0 1021.3 1021.4 0.0
30/06:30am 2.7 0.1 1.2 90 0.6 NNW 4 6 2 3 1021.3 1021.4 0.0
30/06:00am 3.4 -0.3 2.4 93 0.4 NNW 11 15 6 8 1021.2 1021.3 0.0
30/05:30am 1.7 -0.8 1.3 97 0.2 NNW 4 6 2 3 1021.3 1021.4 0.0
30/05:00am 0.4 -2.7 0.0 97 0.2 NNW 6 7 3 4 1021.5 1021.6 0.0
30/04:30am -1.7 -4.4 -2.3 96 0.1 NNW 2 13 1 7 1021.4 1021.5 0.0
30/04:00am -1.4 -3.7 -2.0 96 0.1 CALM 0 0 0 0 1021.6 1021.7 0.0
30/03:30am -0.5 -2.7 -1.2 95 0.2 CALM 0 0 0 0 1021.9 1022.1 0.0
30/03:00am -1.2 -3.5 -2.5 91 0.4 CALM 0 4 0 2 1022.2 1022.3 0.0
30/02:30am 0.8 -1.5 0.1 95 0.3 NNW 2 4 1 2 1022.3 1022.4 0.0
30/02:00am 2.0 -0.5 1.4 96 0.2 NNW 4 6 2 3 1022.8 1022.9 0.0
30/01:30am 0.5 -1.5 -0.2 95 0.3 CALM 0 0 0 0 1022.6 1022.7 0.0
30/01:00am 0.7 -1.3 -0.3 93 0.4 CALM 0 0 0 0 1022.8 1022.9 0.0
30/12:30am 2.9 0.5 2.2 95 0.3 NNW 4 6 2 3 1023.0 1023.2 0.0
30/12:00am 2.7 0.6 2.0 95 0.3 NNW 2 4 1 2 1023.3 1023.5 0.0
 
Date/Time
EST
Temp
°C
App
Temp
°C
Dew
Point
Rel
Hum
%
Delta-T
°C
Wind Press
QNH
hPa
Press
MSL
hPa
Rain
since 9 am
mm
Dir
 
Spd
km/h
Gust
km/h
Spd
kts
Gust
kts
29/11:30pm 2.0 0.2 1.1 94 0.4 CALM 0 2 0 1 1023.3 1023.5 0.0
29/11:00pm 1.6 -0.4 0.1 90 0.6 CALM 0 0 0 0 1023.0 1023.2 0.0
29/10:30pm 3.9 2.3 2.3 89 0.7 CALM 0 2 0 1 1023.1 1023.3 0.0
29/10:00pm 4.9 1.9 1.9 81 1.2 NW 7 13 4 7 1023.2 1023.4 0.0
29/09:30pm 5.8 4.4 3.8 87 0.9 CALM 0 4 0 2 1023.0 1023.2 0.0
29/09:00pm 4.7 3.2 3.2 90 0.6 CALM 0 0 0 0 1023.1 1023.3 0.0
29/08:30pm 4.2 2.1 1.4 82 1.1 NE 2 4 1 2 1022.8 1022.9 0.0
29/08:00pm 5.9 4.5 3.6 85 1.0 CALM 0 0 0 0 1022.8 1022.9 0.0
29/07:30pm 6.2 3.7 3.7 84 1.1 NNE 6 9 3 5 1022.7 1022.8 0.0
29/07:00pm 7.3 4.9 4.1 80 1.4 NW 6 9 3 5 1022.5 1022.6 0.0
29/06:30pm 7.5 5.1 4.5 81 1.4 NNW 6 9 3 5 1022.2 1022.3 0.0
29/06:00pm 7.5 5.3 3.2 74 1.9 N 4 6 2 3 1021.9 1022.1 0.0
29/05:30pm 9.0 6.3 3.8 70 2.4 NW 7 9 4 5 1021.4 1021.5 0.0
29/05:00pm 10.7 8.5 3.5 61 3.3 NNW 4 7 2 4 1021.2 1021.3 0.0
29/04:30pm 13.4 10.0 3.8 52 4.5 WNW 11 15 6 8 1020.7 1020.8 0.0
29/04:00pm 14.6 12.0 4.3 50 4.9 WNW 7 11 4 6 1020.6 1020.7 0.0
29/03:30pm 15.2 12.1 3.7 46 5.5 NW 9 13 5 7 1020.6 1020.7 0.0
29/03:00pm 15.5 11.2 3.3 44 5.7 WNW 15 20 8 11 1020.4 1020.6 0.0
29/02:30pm 15.9 12.0 3.4 43 5.9 NW 13 20 7 11 1020.1 1020.2 0.0
29/02:00pm 15.4 11.4 2.9 43 5.8 NW 13 22 7 12 1020.0 1020.1 0.0
29/01:30pm 15.8 11.3 2.2 40 6.3 WNW 15 22 8 12 1020.1 1020.2 0.0
29/01:00pm 15.6 11.1 2.4 41 6.1 WNW 15 26 8 14 1020.0 1020.1 0.0
29/12:30pm 15.7 12.7 4.1 46 5.6 WNW 9 15 5 8 1020.0 1020.1 0.0
29/12:00pm 15.3 12.8 5.0 50 5.0 W 7 13 4 7 1020.3 1020.4 0.0
29/11:30am 14.7 11.0 4.7 51 4.8 W 13 17 7 9 1021.0 1021.1 0.0
29/11:00am 14.8 12.1 5.6 54 4.5 W 9 15 5 8 1021.1 1021.2 0.0
29/10:30am 14.3 11.3 5.9 57 4.2 WNW 11 17 6 9 1021.0 1021.1 0.0
29/10:00am 14.3 11.9 6.9 61 3.7 NW 9 15 5 8 1020.8 1020.9 0.0
29/09:30am 12.8 10.6 7.9 72 2.5 NW 9 17 5 9 1020.8 1020.9 0.0
29/09:00am 12.4 10.5 9.1 80 1.7 NNW 9 17 5 9 1020.4 1020.6 0.2
29/08:30am 11.2 9.9 9.1 87 1.1 N 6 11 3 6 1020.6 1020.7 0.2
29/08:00am 9.9 8.5 8.8 93 0.6 N 6 11 3 6 1019.9 1020.0 0.2
29/07:30am 8.8 7.5 7.7 93 0.5 NNW 4 7 2 4 1019.4 1019.5 0.2
29/07:00am 8.3 7.7 7.2 93 0.5 CALM 0 0 0 0 1019.2 1019.3 0.2
29/06:30am 8.4 7.6 6.7 89 0.8 CALM 0 0 0 0 1018.8 1018.9 0.2
29/06:00am 9.3 8.0 7.6 89 0.8 N 4 6 2 3 1018.4 1018.5 0.2
29/05:30am 10.3 9.0 7.5 83 1.4 NW 4 7 2 4 1018.1 1018.2 0.2
29/05:00am 11.5 9.9 8.7 83 1.4 NW 7 11 4 6 1017.9 1018.0 0.2
29/04:30am 11.6 10.0 8.6 82 1.5 NW 7 15 4 8 1017.6 1017.6 0.2
29/04:00am 12.9 10.3 9.2 78 1.9 NW 13 24 7 13 1017.4 1017.4 0.2
29/03:30am 12.4 10.2 9.4 82 1.6 NNW 11 17 6 9 1017.5 1017.5 0.2
29/03:00am 12.5 10.3 9.5 82 1.6 NW 11 19 6 10 1017.5 1017.5 0.2
29/02:30am 12.4 9.4 9.2 81 1.7 NW 15 24 8 13 1017.2 1017.3 0.2
29/02:00am 12.7 9.8 9.7 82 1.6 NW 15 30 8 16 1017.7 1017.7 0.2
29/01:30am 12.8 9.5 9.6 81 1.7 NW 17 28 9 15 1017.8 1017.8 0.2
29/01:00am 12.8 9.9 9.8 82 1.6 NW 15 22 8 12 1018.0 1018.1 0.2
29/12:30am 12.9 9.7 9.9 82 1.6 NW 17 26 9 14 1018.4 1018.5 0.2
29/12:00am 12.6 10.7 10.5 87 1.1 NW 11 22 6 12 1018.6 1018.7 0.2
 
Date/Time
EST
Temp
°C
App
Temp
°C
Dew
Point
Rel
Hum
%
Delta-T
°C
Wind Press
QNH
hPa
Press
MSL
hPa
Rain
since 9 am
mm
Dir
 
Spd
km/h
Gust
km/h
Spd
kts
Gust
kts
28/11:30pm 12.6 10.4 10.7 88 1.0 NW 13 19 7 10 1018.7 1018.8 0.2
28/11:00pm 12.5 10.7 10.7 89 1.0 NNW 11 20 6 11 1019.1 1019.1 0.0
28/10:30pm 12.1 10.7 10.8 92 0.7 NNW 9 17 5 9 1019.2 1019.3 0.0
28/10:00pm 11.2 9.9 10.1 93 0.6 N 7 15 4 8 1019.6 1019.7 0.0
28/09:30pm 10.6 9.8 9.5 93 0.6 NNE 4 9 2 5 1020.1 1020.2 0.0
28/09:00pm 10.4 9.5 9.2 92 0.6 N 4 11 2 6 1020.0 1020.1 0.0
28/08:30pm 10.1 9.9 9.0 93 0.6 CALM 0 2 0 1 1020.3 1020.4 0.0
28/08:00pm 9.8 9.5 8.7 93 0.6 CALM 0 4 0 2 1020.4 1020.6 0.0
28/07:30pm 9.3 7.7 8.1 92 0.6 NNW 6 7 3 4 1020.6 1020.7 0.0
28/07:00pm 9.5 7.7 7.8 89 0.8 NNW 7 13 4 7 1020.4 1020.6 0.0
28/06:30pm 10.5 7.3 8.4 87 1.1 NW 15 24 8 13 1020.1 1020.2 0.0
28/06:00pm 10.7 7.2 8.6 87 1.1 NW 17 26 9 14 1019.7 1019.8 0.0
28/05:30pm 9.8 8.6 8.2 90 0.8 NNW 4 11 2 6 1019.9 1020.0 0.0
28/05:00pm 10.4 9.2 8.0 85 1.2 NNE 4 6 2 3 1020.1 1020.2 0.0
28/04:30pm 11.2 9.6 8.1 81 1.6 N 6 9 3 5 1020.3 1020.4 0.0
28/04:00pm 13.0 11.0 8.5 74 2.3 NNW 9 19 5 10 1020.6 1020.7 0.0
28/03:30pm 12.6 10.1 8.3 75 2.2 NW 11 20 6 11 1020.6 1020.7 0.0
28/03:00pm 13.1 10.0 8.8 75 2.2 NW 15 24 8 13 1020.6 1020.7 0.0
28/02:30pm 13.5 9.7 9.2 75 2.3 NW 19 28 10 15 1020.6 1020.7 0.0
28/02:00pm 14.0 10.3 9.6 75 2.3 NW 19 30 10 16 1020.6 1020.7 0.0
28/01:30pm 14.7 10.7 8.9 68 3.1 NW 20 32 11 17 1020.8 1020.9 0.0
28/01:00pm 14.2 11.0 8.6 69 2.9 NW 15 26 8 14 1021.1 1021.2 0.0
28/12:30pm 13.8 10.1 8.0 68 3.0 NW 17 24 9 13 1021.2 1021.3 0.0
28/12:00pm 13.9 9.2 7.9 67 3.1 WNW 22 32 12 17 1021.6 1021.7 0.0
28/11:30am 14.3 11.5 8.5 68 3.0 NW 13 24 7 13 1022.3 1022.4 0.0
28/11:00am 14.2 10.7 7.3 63 3.5 NW 15 24 8 13 1022.6 1022.7 0.0
28/10:30am 13.9 12.6 10.1 78 2.0 NNE 7 13 4 7 1023.0 1023.2 0.0
28/10:00am 12.0 10.8 9.4 84 1.4 N 6 11 3 6 1023.3 1023.5 0.0
28/09:30am 9.7 8.8 9.2 97 0.3 N 4 7 2 4 1023.4 1023.6 0.0
28/09:00am 9.0 8.7 8.6 97 0.2 CALM 0 0 0 0 1023.3 1023.5 0.0
28/08:30am 6.3 5.4 5.9 97 0.2 CALM 0 0 0 0 1023.3 1023.5 0.0
28/08:00am 4.9 3.7 4.5 97 0.2 CALM 0 0 0 0 1023.4 1023.6 0.0
28/07:30am 3.6 2.1 3.0 96 0.3 CALM 0 0 0 0 1023.3 1023.5 0.0
28/07:00am 3.2 1.3 2.8 97 0.2 NNW 2 6 1 3 1023.3 1023.5 0.0
28/06:30am 3.6 1.7 3.0 96 0.3 NNW 2 6 1 3 1022.8 1022.9 0.0
28/06:00am 3.3 1.7 2.7 96 0.2 CALM 0 6 0 3 1022.6 1022.7 0.0
28/05:30am 2.1 0.3 1.5 96 0.2 CALM 0 0 0 0 1022.4 1022.5 0.0
28/05:00am 1.9 0.1 1.2 95 0.3 CALM 0 0 0 0 1022.3 1022.4 0.0
28/04:30am 3.3 1.7 2.7 96 0.3 CALM 0 0 0 0 1022.3 1022.4 0.0
28/04:00am 3.4 1.5 2.7 95 0.3 N 2 4 1 2 1022.3 1022.4 0.0
28/03:30am 4.1 2.7 3.4 95 0.3 CALM 0 0 0 0 1022.4 1022.5 0.0
28/03:00am 4.0 2.1 3.1 94 0.4 NNE 2 6 1 3 1022.5 1022.6 0.0
28/02:30am 5.8 3.6 5.2 96 0.3 WNW 6 9 3 5 1022.7 1022.8 0.0
28/02:00am 5.2 2.9 4.6 96 0.3 NNW 6 7 3 4 1022.8 1022.9 0.0
28/01:30am 4.9 2.5 4.2 95 0.3 NNW 6 9 3 5 1023.0 1023.2 0.0
28/01:00am 4.6 2.5 3.7 94 0.4 NNW 4 6 2 3 1023.0 1023.2 0.0
28/12:30am 5.0 2.5 4.0 93 0.4 NNW 6 9 3 5 1023.0 1023.2 0.0
28/12:00am 5.6 3.3 4.7 94 0.4 NNW 6 9 3 5 1023.0 1023.2 0.0
 
Date/Time
EST
Temp
°C
App
Temp
°C
Dew
Point
Rel
Hum
%
Delta-T
°C
Wind Press
QNH
hPa
Press
MSL
hPa
Rain
since 9 am
mm
Dir
 
Spd
km/h
Gust
km/h
Spd
kts
Gust
kts
27/11:30pm 4.6 3.1 2.8 88 0.8 CALM 0 4 0 2 1023.1 1023.3 0.0
27/11:00pm 6.3 4.0 4.6 89 0.8 NW 6 9 3 5 1023.3 1023.5 0.0
27/10:30pm 7.4 5.2 5.5 88 0.9 NNW 6 9 3 5 1023.2 1023.4 0.0
27/10:00pm 7.7 6.7 5.5 86 1.0 CALM 0 2 0 1 1023.3 1023.5 0.0
27/09:30pm 7.9 5.7 5.5 85 1.1 ENE 6 7 3 4 1023.4 1023.6 0.0
27/09:00pm 8.8 8.0 6.3 84 1.2 CALM 0 0 0 0 1023.5 1023.7 0.0
27/08:30pm 9.0 8.2 6.3 83 1.3 CALM 0 0 0 0 1023.3 1023.5 0.0
27/08:00pm 9.6 7.7 6.7 82 1.4 NW 6 9 3 5 1023.2 1023.4 0.0
27/07:30pm 9.8 7.4 6.9 82 1.4 NW 9 13 5 7 1023.1 1023.3 0.0
27/07:00pm 9.9 8.0 6.8 81 1.5 NW 6 7 3 4 1023.2 1023.4 0.0
27/06:30pm 10.0 8.4 6.5 79 1.7 NNW 4 7 2 4 1022.8 1022.9 0.0
27/06:00pm 10.6 7.7 6.7 77 1.9 NW 11 17 6 9 1022.4 1022.5 0.0
27/05:30pm 10.1 7.9 6.3 77 1.8 NNW 7 11 4 6 1022.4 1022.5 0.0
27/05:00pm 11.5 9.8 6.0 69 2.7 NW 4 7 2 4 1022.4 1022.5 0.0
27/04:30pm 13.5 11.3 6.4 62 3.5 NW 7 13 4 7 1022.2 1022.3 0.0
27/04:00pm 14.3 11.3 6.2 58 4.0 WNW 11 19 6 10 1022.2 1022.3 0.0
27/03:30pm 14.9 10.8 6.0 55 4.4 WNW 17 24 9 13 1021.9 1022.1 0.0
27/03:00pm 16.1 12.4 6.3 52 4.9 WNW 15 22 8 12 1021.9 1022.1 0.0
27/02:30pm 16.0 12.4 5.0 48 5.4 WNW 13 20 7 11 1021.8 1022.0 0.0
27/02:00pm 15.8 12.2 5.1 49 5.2 NW 13 20 7 11 1021.7 1021.9 0.0
27/01:30pm 14.0 9.8 4.0 51 4.7 WNW 15 20 8 11 1022.0 1022.2 0.0
27/01:00pm 14.0 11.0 4.0 51 4.7 NW 9 17 5 9 1022.4 1022.5 0.0
27/12:30pm 16.0 12.7 4.4 46 5.6 NW 11 19 6 10 1022.5 1022.6 0.0

Other Formats:

Comma delimited format used in spreadsheet applications
http://www.bom.gov.au/fwo/IDN60801/IDN60801.94927.axf

JavaScript Object Notation format (JSON) in row-major order
http://www.bom.gov.au/fwo/IDN60801/IDN60801.94927.json